Time;durP1;ratioP1;P1;durP2;ratioP2;P2;SDS_P1;SDS_P2;PMS_P1;PMS_P2;Temp;Humidity;BMP_temperature;BMP_pressure;BME280_temperature;BME280_humidity;BME280_pressure;Samples;Min_cycle;Max_cycle;Signal;HPM_P1;HPM_P2
2022/07/12 00:00:28;;;;;;;2.55;1.42;;;;;;;17.33;58.53;101486.72;5091485;28;20056;-29
2022/07/12 00:02:53;;;;;;;1.50;1.40;;;;;;;17.31;59.13;101486.78;5054380;28;20035;-29
2022/07/12 00:05:18;;;;;;;1.63;1.52;;;;;;;17.28;58.62;101493.03;5065271;28;20052;-29
2022/07/12 00:07:44;;;;;;;1.55;1.45;;;;;;;17.27;58.85;101498.41;5086854;28;20519;-29
2022/07/12 00:10:09;;;;;;;1.70;1.60;;;;;;;17.24;59.01;101494.00;5091109;28;20032;-30
2022/07/12 00:12:35;;;;;;;1.35;1.30;;;;;;;17.21;59.18;101499.44;5092113;28;20032;-29
2022/07/12 00:15:00;;;;;;;2.50;1.65;;;;;;;17.20;59.49;101495.00;5072059;28;20047;-29
2022/07/12 00:17:25;;;;;;;1.70;1.60;;;;;;;17.20;59.87;101497.66;5091360;28;20406;-29
2022/07/12 00:19:51;;;;;;;1.63;1.52;;;;;;;17.16;59.91;101491.56;5073937;28;20028;-29
2022/07/12 00:22:16;;;;;;;1.52;1.42;;;;;;;17.12;59.60;101492.53;5090514;28;20031;-29
2022/07/12 00:24:41;;;;;;;1.30;1.30;;;;;;;17.11;59.44;101492.56;5091144;28;20435;-29
2022/07/12 00:27:07;;;;;;;1.70;1.60;;;;;;;17.07;59.62;101493.56;5073656;28;20411;-29
2022/07/12 00:29:32;;;;;;;1.42;1.33;;;;;;;17.09;60.21;101494.38;5091205;28;20028;-29
2022/07/12 00:31:57;;;;;;;1.40;1.30;;;;;;;17.03;59.66;101490.94;5083556;28;20515;-29
2022/07/12 00:34:23;;;;;;;1.60;1.50;;;;;;;17.05;60.11;101493.56;5091618;28;20538;-29
2022/07/12 00:36:48;;;;;;;1.23;1.23;;;;;;;17.02;60.16;101494.50;5091423;28;20053;-29
2022/07/12 00:39:13;;;;;;;1.88;1.60;;;;;;;17.00;60.34;101493.66;5085465;28;20082;-29
2022/07/12 00:41:39;;;;;;;1.50;1.40;;;;;;;17.00;59.82;101490.09;5088472;28;20028;-29
2022/07/12 00:44:04;;;;;;;1.50;1.40;;;;;;;16.98;59.78;101490.16;5064049;28;20498;-29
2022/07/12 00:46:31;;;;;;;1.45;1.35;;;;;;;16.96;60.63;101486.66;5074655;28;20023;-29
2022/07/12 00:48:56;;;;;;;3.17;1.70;;;;;;;16.91;59.93;101488.56;5091295;28;20028;-29
2022/07/12 00:51:21;;;;;;;3.00;1.50;;;;;;;16.91;60.59;101499.22;5068089;28;20035;-29
2022/07/12 00:53:47;;;;;;;3.13;1.75;;;;;;;16.89;60.22;101490.34;5089746;28;20051;-29
2022/07/12 00:56:13;;;;;;;1.50;1.40;;;;;;;16.86;59.95;101487.75;5057431;28;20024;-29
2022/07/12 00:58:39;;;;;;;1.50;1.40;;;;;;;16.82;59.99;101486.06;5091028;28;20039;-29
2022/07/12 01:01:04;;;;;;;2.35;1.55;;;;;;;16.81;59.51;101490.53;5082304;28;20564;-29
2022/07/12 01:03:30;;;;;;;1.50;1.40;;;;;;;16.86;59.50;101487.75;5082785;28;20036;-29
2022/07/12 01:05:55;;;;;;;1.90;1.77;;;;;;;16.81;59.54;101485.22;5078065;28;20463;-29
2022/07/12 01:08:20;;;;;;;1.50;1.33;;;;;;;16.77;59.59;101479.06;5056885;28;20402;-29
2022/07/12 01:10:48;;;;;;;1.40;1.30;;;;;;;16.73;59.78;101479.16;5091443;28;20020;-29
2022/07/12 01:13:13;;;;;;;1.45;1.35;;;;;;;16.72;60.32;101486.28;5083978;28;20426;-29
2022/07/12 01:15:39;;;;;;;2.33;1.63;;;;;;;16.74;60.28;101472.94;5081763;28;20035;-29
2022/07/12 01:18:05;;;;;;;1.73;1.63;;;;;;;16.70;60.35;101487.25;5091304;28;20511;-29
2022/07/12 01:20:31;;;;;;;2.15;1.70;;;;;;;16.68;60.27;101484.63;5073457;28;20227;-29
2022/07/12 01:22:58;;;;;;;1.60;1.50;;;;;;;16.68;60.17;101476.63;5073191;28;20410;-29
2022/07/12 01:25:24;;;;;;;1.52;1.42;;;;;;;16.65;60.54;101484.69;5095051;28;20028;-29
2022/07/12 01:27:49;;;;;;;1.60;1.50;;;;;;;16.66;60.20;101486.41;5095045;28;20032;-29
2022/07/12 01:30:15;;;;;;;1.65;1.55;;;;;;;16.61;60.59;101489.16;5078120;28;20034;-29
2022/07/12 01:32:40;;;;;;;1.50;1.40;;;;;;;16.61;61.17;101483.84;5068982;28;20118;-29
2022/07/12 01:35:06;;;;;;;1.48;1.38;;;;;;;16.60;61.27;101486.56;5070907;28;20036;-29
2022/07/12 01:37:37;;;;;;;2.55;1.83;;;;;;;16.57;61.57;101487.47;5092408;28;20123;-29
2022/07/12 01:40:04;;;;;;;1.63;1.52;;;;;;;16.53;60.80;101481.38;5095171;28;20103;-29
2022/07/12 01:42:30;;;;;;;1.65;1.55;;;;;;;16.52;61.77;101492.94;5092371;28;20032;-29
2022/07/12 01:44:56;;;;;;;1.77;1.67;;;;;;;16.49;61.41;101495.66;5075875;28;20032;-29
2022/07/12 01:47:24;;;;;;;2.20;1.60;;;;;;;16.45;61.21;101491.31;5092017;28;20028;-29
2022/07/12 01:49:49;;;;;;;1.30;1.20;;;;;;;16.44;61.10;101494.84;5091532;28;20027;-29
2022/07/12 01:52:15;;;;;;;1.50;1.40;;;;;;;16.44;61.22;101494.00;5092089;28;20028;-29
2022/07/12 01:54:41;;;;;;;1.65;1.55;;;;;;;16.42;61.74;101489.59;5064447;28;20103;-29
2022/07/12 01:57:07;;;;;;;1.50;1.40;;;;;;;16.39;61.70;101494.09;5079199;28;20142;-29
2022/07/12 01:59:33;;;;;;;1.75;1.65;;;;;;;16.37;61.92;101493.25;5062759;28;20051;-29
2022/07/12 02:01:58;;;;;;;2.17;1.45;;;;;;;16.38;61.98;101498.50;5093166;28;20446;-29
2022/07/12 02:04:23;;;;;;;1.63;1.52;;;;;;;16.39;62.04;101491.41;5093139;28;20019;-29
2022/07/12 02:06:49;;;;;;;1.35;1.25;;;;;;;16.34;61.47;101494.16;5074794;28;20387;-29
2022/07/12 02:09:16;;;;;;;1.58;1.48;;;;;;;16.33;61.83;101487.09;5089646;28;20498;-29
2022/07/12 02:11:41;;;;;;;1.40;1.30;;;;;;;16.29;61.43;101488.97;5091868;28;20033;-29
2022/07/12 02:14:07;;;;;;;1.80;1.70;;;;;;;16.33;62.08;101488.88;5091934;28;20557;-29
2022/07/12 02:16:32;;;;;;;1.40;1.30;;;;;;;16.30;62.06;101492.47;5094264;28;20028;-29
2022/07/12 02:18:58;;;;;;;1.60;1.50;;;;;;;16.24;61.35;101493.47;5076148;28;20030;-29
2022/07/12 02:21:23;;;;;;;1.60;1.50;;;;;;;16.24;61.63;101489.97;5071619;28;20028;-29
2022/07/12 02:23:49;;;;;;;2.42;1.60;;;;;;;16.20;61.36;101486.47;5076820;28;20069;-29
2022/07/12 02:26:15;;;;;;;1.40;1.30;;;;;;;16.20;60.96;101488.25;5094126;28;20107;-29
2022/07/12 02:28:40;;;;;;;1.60;1.50;;;;;;;16.18;61.33;101501.59;5087096;28;20112;-29
2022/07/12 02:31:06;;;;;;;1.77;1.50;;;;;;;16.18;61.45;101498.06;5093980;28;20036;-29
2022/07/12 02:33:31;;;;;;;1.77;1.67;;;;;;;16.15;61.18;101501.66;5093486;28;20028;-29
2022/07/12 02:35:56;;;;;;;1.75;1.65;;;;;;;16.16;61.79;101508.72;5093460;28;20429;-29
2022/07/12 02:38:22;;;;;;;2.88;1.95;;;;;;;16.13;61.12;101514.09;5092282;28;20074;-29
2022/07/12 02:40:53;;;;;;;1.50;1.40;;;;;;;16.09;60.98;101523.03;5080835;28;20028;-29
2022/07/12 02:43:19;;;;;;;1.60;1.50;;;;;;;16.09;61.21;101523.03;5072545;28;20020;-29
2022/07/12 02:45:44;;;;;;;1.55;1.45;;;;;;;16.05;60.57;101529.34;5091792;28;20039;-29
2022/07/12 02:48:12;;;;;;;1.52;1.40;;;;;;;16.03;60.92;101518.72;5090571;28;20020;-29
2022/07/12 02:50:38;;;;;;;1.92;1.83;;;;;;;16.01;60.80;101520.53;5093021;28;20069;-29
2022/07/12 02:53:05;;;;;;;1.40;1.30;;;;;;;16.00;60.99;101522.31;5092864;28;20059;-29
2022/07/12 02:55:30;;;;;;;2.47;1.52;;;;;;;15.95;60.88;101524.19;5075437;28;20387;-29
2022/07/12 02:57:55;;;;;;;1.55;1.45;;;;;;;15.92;60.85;101529.53;5074266;28;20024;-29
2022/07/12 03:00:20;;;;;;;1.80;1.70;;;;;;;15.88;60.86;101526.03;5088436;28;20540;-29
2022/07/12 03:02:46;;;;;;;1.92;1.83;;;;;;;15.88;60.62;101531.34;5071234;28;20425;-29
2022/07/12 03:05:11;;;;;;;1.77;1.50;;;;;;;15.85;60.86;101536.75;5093183;28;20024;-29
2022/07/12 03:07:36;;;;;;;1.50;1.40;;;;;;;15.81;61.24;101535.06;5091398;28;20376;-29
2022/07/12 03:10:03;;;;;;;1.60;1.50;;;;;;;15.82;61.13;101546.53;5071879;28;20543;-29
2022/07/12 03:12:29;;;;;;;1.65;1.55;;;;;;;15.80;60.64;101546.56;5070973;28;20028;-29
2022/07/12 03:14:54;;;;;;;2.03;1.55;;;;;;;15.74;60.90;101542.22;5092418;28;20028;-29
2022/07/12 03:17:20;;;;;;;3.13;1.50;;;;;;;15.75;61.43;101549.34;5092301;28;20019;-29
2022/07/12 03:19:46;;;;;;;2.35;1.50;;;;;;;15.70;61.37;101545.84;5087480;28;20020;-29
2022/07/12 03:22:11;;;;;;;1.85;1.42;;;;;;;15.66;61.28;101552.13;5085337;28;20525;-29
2022/07/12 03:24:36;;;;;;;2.00;1.90;;;;;;;15.70;61.39;101545.84;5086688;28;20475;-29
2022/07/12 03:27:02;;;;;;;1.70;1.60;;;;;;;15.67;60.99;101553.00;5089099;28;20032;-29
2022/07/12 03:29:27;;;;;;;1.85;1.75;;;;;;;15.67;61.14;101553.88;5068529;28;20274;-29
2022/07/12 03:31:52;;;;;;;2.00;1.80;;;;;;;15.63;61.41;101562.81;5091785;28;20058;-29
2022/07/12 03:34:18;;;;;;;2.28;1.65;;;;;;;15.61;61.57;101559.31;5083473;28;20070;-29
2022/07/12 03:36:43;;;;;;;1.45;1.35;;;;;;;15.58;61.29;101567.31;5090445;28;20046;-29
2022/07/12 03:39:08;;;;;;;1.70;1.60;;;;;;;15.58;61.65;101564.66;5054689;28;20028;-29
2022/07/12 03:41:34;;;;;;;1.75;1.65;;;;;;;15.56;61.46;101566.47;5093212;28;20028;-29
2022/07/12 03:43:59;;;;;;;1.50;1.35;;;;;;;15.54;61.44;101562.97;5093041;28;20035;-29
2022/07/12 03:46:24;;;;;;;3.10;2.30;;;;;;;15.49;61.83;101558.59;5085524;28;20024;-29
2022/07/12 03:48:50;;;;;;;1.77;1.60;;;;;;;15.50;61.59;101572.75;5068804;28;20381;-29
2022/07/12 03:51:15;;;;;;;1.90;1.75;;;;;;;15.50;62.39;101573.63;5082637;28;20042;-29
2022/07/12 03:53:40;;;;;;;1.95;1.73;;;;;;;15.48;61.46;101569.25;5091054;28;20050;-29
2022/07/12 03:56:06;;;;;;;1.88;1.77;;;;;;;15.46;61.73;101571.94;5077727;28;20033;-29
2022/07/12 03:58:32;;;;;;;2.60;2.08;;;;;;;15.47;61.73;101571.03;5086871;28;20399;-29
2022/07/12 04:00:57;;;;;;;2.00;1.90;;;;;;;15.46;61.80;101577.25;5073662;28;20024;-29
2022/07/12 04:03:22;;;;;;;2.10;1.92;;;;;;;15.43;61.64;101581.72;5088591;28;20077;-29
2022/07/12 04:05:48;;;;;;;1.98;1.85;;;;;;;15.42;61.78;101580.88;5100935;28;20027;-29
2022/07/12 04:08:13;;;;;;;3.15;2.13;;;;;;;15.45;61.54;101582.59;5080360;28;20083;-29
2022/07/12 04:10:38;;;;;;;2.22;2.05;;;;;;;15.41;62.04;101576.47;5082658;28;20031;-29
2022/07/12 04:13:04;;;;;;;1.98;1.48;;;;;;;15.43;61.66;101590.59;5087160;28;20023;-29
2022/07/12 04:15:29;;;;;;;2.05;1.95;;;;;;;15.39;61.79;101587.09;5094369;28;20036;-29
2022/07/12 04:17:54;;;;;;;1.92;1.60;;;;;;;15.40;61.96;101593.28;5093025;28;20532;-29
2022/07/12 04:20:20;;;;;;;1.90;1.80;;;;;;;15.39;61.78;101591.53;5103251;28;20467;-29
2022/07/12 04:22:46;;;;;;;1.77;1.67;;;;;;;15.39;62.13;101592.41;5073659;28;20024;-29
2022/07/12 04:25:11;;;;;;;1.98;1.77;;;;;;;15.43;61.75;101593.25;5075668;28;20032;-29
2022/07/12 04:27:37;;;;;;;3.33;1.80;;;;;;;15.41;61.71;101587.09;5093334;28;20028;-29
2022/07/12 04:30:03;;;;;;;1.90;1.70;;;;;;;15.43;61.84;101597.66;5071891;28;20048;-29
2022/07/12 04:32:28;;;;;;;2.15;1.77;;;;;;;15.47;61.75;101600.25;5060321;28;20032;-29
2022/07/12 04:34:53;;;;;;;1.65;1.55;;;;;;;15.46;61.69;101595.84;5090092;28;20035;-29
2022/07/12 04:37:19;;;;;;;1.98;1.75;;;;;;;15.49;62.17;101602.91;5072848;28;20027;-29
2022/07/12 04:39:44;;;;;;;2.17;2.08;;;;;;;15.48;62.12;101599.34;5090580;28;20030;-29
2022/07/12 04:42:09;;;;;;;2.25;1.65;;;;;;;15.54;62.77;101597.53;5093045;28;20038;-29
2022/07/12 04:44:35;;;;;;;3.75;2.50;;;;;;;15.58;62.86;101597.47;5074705;28;20035;-29
2022/07/12 04:47:00;;;;;;;2.33;2.00;;;;;;;15.59;62.82;101600.97;5082233;28;20103;-29
2022/07/12 04:49:25;;;;;;;2.00;1.90;;;;;;;15.59;62.50;101607.19;5086912;28;20042;-29
2022/07/12 04:51:51;;;;;;;2.08;1.98;;;;;;;15.61;62.78;101612.50;5097169;28;20039;-29
2022/07/12 04:54:17;;;;;;;2.10;2.00;;;;;;;15.61;62.52;101608.03;5089902;28;20549;-29
2022/07/12 04:56:42;;;;;;;2.97;2.40;;;;;;;15.60;63.14;101608.94;5089057;28;20019;-29
2022/07/12 04:59:08;;;;;;;1.65;1.55;;;;;;;15.63;63.29;101605.34;5097804;28;20026;-29
2022/07/12 05:01:33;;;;;;;3.35;1.90;;;;;;;15.67;63.17;101606.19;5089788;28;20020;-29
2022/07/12 05:03:58;;;;;;;2.30;2.10;;;;;;;15.71;63.09;101614.09;5096653;28;20031;-29
2022/07/12 05:06:24;;;;;;;2.20;2.10;;;;;;;15.75;63.01;101621.13;5100662;28;20031;-29
2022/07/12 05:08:50;;;;;;;2.03;1.90;;;;;;;15.80;62.96;101628.16;5087870;28;20387;-29
2022/07/12 05:11:15;;;;;;;1.80;1.70;;;;;;;15.83;63.13;101630.75;5089871;28;20521;-29
2022/07/12 05:13:40;;;;;;;2.20;2.00;;;;;;;15.87;62.76;101629.81;5098667;28;20149;-29
2022/07/12 05:16:07;;;;;;;1.95;1.85;;;;;;;15.91;63.04;101623.56;5102237;28;20471;-29
2022/07/12 05:18:33;;;;;;;1.90;1.80;;;;;;;15.97;63.10;101630.59;5067917;28;20465;-29
2022/07/12 05:20:58;;;;;;;2.15;1.95;;;;;;;16.02;63.06;101629.59;5101805;28;20516;-29
2022/07/12 05:23:24;;;;;;;2.10;2.00;;;;;;;16.07;63.61;101629.50;5067487;28;20032;-29
2022/07/12 05:25:49;;;;;;;2.85;1.88;;;;;;;16.13;63.28;101639.16;5081281;28;20472;-29
2022/07/12 05:28:15;;;;;;;2.20;2.00;;;;;;;16.18;64.42;101639.09;5083581;28;20403;-29
2022/07/12 05:30:42;;;;;;;3.08;2.10;;;;;;;16.22;64.54;101633.69;5081277;28;20410;-29
2022/07/12 05:33:07;;;;;;;1.50;1.40;;;;;;;16.26;63.85;101635.41;5081216;28;20017;-29
2022/07/12 05:35:32;;;;;;;3.15;2.20;;;;;;;16.31;65.04;101643.31;5090862;28;20030;-29
2022/07/12 05:37:58;;;;;;;3.33;2.08;;;;;;;16.36;65.24;101640.53;5091228;28;20221;-29
2022/07/12 05:40:23;;;;;;;2.40;2.20;;;;;;;16.41;66.29;101644.03;5091560;28;20078;-29
2022/07/12 05:42:49;;;;;;;2.75;2.55;;;;;;;16.48;66.81;101639.47;5090923;28;20024;-29
2022/07/12 05:45:14;;;;;;;3.40;2.65;;;;;;;16.54;66.28;101647.34;5083606;28;20036;-29
2022/07/12 05:47:39;;;;;;;2.28;2.08;;;;;;;16.60;66.26;101649.00;5091075;28;20483;-29
2022/07/12 05:50:05;;;;;;;3.17;2.40;;;;;;;16.64;66.09;101648.91;5091326;28;20031;-29
2022/07/12 05:55:14;;;;;;;2.95;2.53;;;;;;;16.76;66.40;101647.81;5103427;28;20088;-29
2022/07/12 05:57:39;;;;;;;3.00;2.60;;;;;;;16.83;66.54;101659.22;5093331;28;20471;-29
2022/07/12 06:00:05;;;;;;;3.40;2.83;;;;;;;16.89;67.22;101660.88;5092243;28;20024;-29
2022/07/12 06:02:31;;;;;;;2.60;2.40;;;;;;;16.95;66.65;101663.44;5080176;28;20061;-29
2022/07/12 06:04:56;;;;;;;3.78;2.55;;;;;;;17.03;66.78;101666.81;5091563;28;20449;-29
2022/07/12 06:07:22;;;;;;;3.00;2.80;;;;;;;17.09;66.73;101667.63;5099126;28;20035;-29
2022/07/12 06:09:47;;;;;;;3.22;2.28;;;;;;;17.16;66.51;101666.56;5094945;28;20020;-29
2022/07/12 06:12:12;;;;;;;3.05;2.58;;;;;;;17.21;66.29;101669.16;5092964;28;20027;-29
2022/07/12 06:14:38;;;;;;;2.58;2.38;;;;;;;17.27;66.06;101667.22;5076237;28;20059;-29
2022/07/12 06:17:03;;;;;;;2.80;2.60;;;;;;;17.34;66.12;101675.09;5093779;28;20020;-29
2022/07/12 06:19:28;;;;;;;2.60;2.40;;;;;;;17.39;66.01;101662.53;5088608;28;20043;-29
2022/07/12 06:21:54;;;;;;;4.88;2.65;;;;;;;17.48;65.33;101672.13;5107634;28;20023;-29
2022/07/12 06:24:19;;;;;;;2.42;2.30;;;;;;;17.54;66.03;101664.88;5093345;28;20020;-29
2022/07/12 06:26:44;;;;;;;2.53;2.28;;;;;;;17.64;66.10;101670.00;5080804;28;20379;-29
2022/07/12 06:29:10;;;;;;;2.30;2.10;;;;;;;17.71;66.04;101663.63;5093512;28;20064;-29
2022/07/12 06:31:35;;;;;;;2.65;2.20;;;;;;;17.80;65.48;101663.38;5094142;28;20032;-29
2022/07/12 06:34:00;;;;;;;3.22;2.40;;;;;;;17.86;66.04;101658.81;5074571;28;20028;-29
2022/07/12 06:36:26;;;;;;;3.28;2.42;;;;;;;17.96;65.17;101665.69;5088513;28;20433;-29
2022/07/12 06:38:51;;;;;;;2.50;2.13;;;;;;;18.05;65.28;101657.47;5095163;28;20074;-29
2022/07/12 06:41:16;;;;;;;4.07;2.40;;;;;;;18.15;64.59;101666.16;5094984;28;20059;-29
2022/07/12 06:43:42;;;;;;;2.67;2.10;;;;;;;18.24;63.97;101657.00;5089272;28;20028;-29
2022/07/12 06:46:07;;;;;;;3.50;1.95;;;;;;;18.33;64.58;101667.47;5109361;28;20028;-29
2022/07/12 06:48:33;;;;;;;2.67;2.20;;;;;;;18.39;64.49;101660.19;5094980;28;20032;-29
2022/07/12 06:50:58;;;;;;;2.00;1.90;;;;;;;18.51;64.14;101667.88;5094589;28;20028;-29
2022/07/12 06:53:23;;;;;;;2.53;2.33;;;;;;;18.58;63.99;101668.63;5110417;28;20028;-29
2022/07/12 06:55:48;;;;;;;2.00;1.90;;;;;;;18.68;63.98;101669.25;5081174;28;20031;-29
2022/07/12 06:58:14;;;;;;;1.80;1.70;;;;;;;18.74;63.48;101660.19;5093612;28;20483;-29
2022/07/12 07:00:39;;;;;;;1.80;1.70;;;;;;;18.77;63.60;101666.28;5087952;28;20051;-29
2022/07/12 07:03:08;;;;;;;2.05;1.92;;;;;;;18.91;63.21;101665.03;5073305;28;20522;-29
2022/07/12 07:05:34;;;;;;;2.45;2.13;;;;;;;19.01;63.44;101663.00;5092262;28;20031;-29
2022/07/12 07:07:59;;;;;;;2.00;1.90;;;;;;;19.12;63.41;101668.94;5098300;28;20023;-29
2022/07/12 07:10:24;;;;;;;1.73;1.63;;;;;;;19.19;62.80;101669.63;5097284;28;20028;-29
2022/07/12 07:12:50;;;;;;;2.80;1.85;;;;;;;19.28;62.69;101674.72;5088556;28;20031;-29
2022/07/12 07:15:16;;;;;;;2.85;2.15;;;;;;;19.39;62.34;101669.03;5097481;28;20020;-29
2022/07/12 07:17:42;;;;;;;2.00;1.90;;;;;;;19.52;62.47;101677.56;5100612;28;20058;-29
2022/07/12 07:20:11;;;;;;;2.47;1.88;;;;;;;19.60;62.32;101670.16;5093371;28;20075;-29
2022/07/12 07:22:37;;;;;;;2.30;2.10;;;;;;;19.72;62.23;101676.94;5081695;28;20472;-29
2022/07/12 07:25:03;;;;;;;2.55;2.00;;;;;;;19.85;62.05;101680.06;5073388;28;20031;-29
2022/07/12 07:27:28;;;;;;;3.25;2.28;;;;;;;19.94;62.21;101670.00;5088031;28;20028;-29
2022/07/12 07:32:37;;;;;;;2.92;2.13;;;;;;;20.16;61.61;101669.31;5092861;28;20120;-29
2022/07/12 07:35:05;;;;;;;1.85;1.75;;;;;;;20.27;61.24;101672.50;5069809;28;20111;-29
2022/07/12 07:37:31;;;;;;;2.08;1.90;;;;;;;20.35;61.09;101670.44;5092912;28;20492;-29
2022/07/12 07:39:56;;;;;;;2.08;1.90;;;;;;;20.44;60.88;101663.03;5091946;28;20115;-29
2022/07/12 07:42:21;;;;;;;2.53;1.80;;;;;;;20.54;60.97;101667.09;5095198;28;20036;-29
2022/07/12 07:44:47;;;;;;;2.05;1.95;;;;;;;20.66;60.40;101665.78;5094787;28;20035;-29
2022/07/12 07:47:12;;;;;;;1.70;1.50;;;;;;;20.75;60.39;101649.38;5092813;28;20387;-29
2022/07/12 07:49:37;;;;;;;1.70;1.60;;;;;;;20.88;59.77;101655.19;5092085;28;20506;-29
2022/07/12 07:52:03;;;;;;;4.07;1.90;;;;;;;20.98;59.83;101657.53;5092025;28;20035;-29
2022/07/12 07:54:28;;;;;;;2.72;1.90;;;;;;;21.05;60.03;101656.38;5111010;28;20486;-29
2022/07/12 07:56:53;;;;;;;1.90;1.80;;;;;;;21.15;59.46;101654.22;5113281;28;20035;-29
2022/07/12 07:59:19;;;;;;;1.75;1.65;;;;;;;21.24;59.44;101648.50;5113073;28;20023;-29
2022/07/12 08:01:53;;;;;;;1.98;1.85;;;;;;;21.34;59.58;101653.50;5093794;28;20036;-29
2022/07/12 08:04:20;;;;;;;2.25;1.77;;;;;;;21.44;59.49;101644.16;5099899;28;20106;-29
2022/07/12 08:06:45;;;;;;;1.88;1.70;;;;;;;21.54;59.03;101648.22;5091332;28;20024;-29
2022/07/12 08:09:12;;;;;;;1.83;1.70;;;;;;;21.65;59.13;101650.47;5095365;28;20023;-29
2022/07/12 08:11:37;;;;;;;2.38;1.65;;;;;;;21.74;59.29;101651.94;5090384;28;20056;-29
2022/07/12 08:14:06;;;;;;;1.90;1.77;;;;;;;21.85;58.55;101654.19;5091218;28;20032;-29
2022/07/12 08:16:32;;;;;;;2.65;1.95;;;;;;;21.96;58.09;101645.69;5100838;28;20035;-29
2022/07/12 08:18:57;;;;;;;1.75;1.58;;;;;;;22.08;57.98;101644.31;5074401;28;20024;-29
2022/07/12 08:21:23;;;;;;;6.72;1.73;;;;;;;22.21;58.48;101649.16;5092329;28;20039;-29
2022/07/12 08:23:49;;;;;;;2.90;2.10;;;;;;;22.37;57.80;101644.84;5091951;28;20141;-29
2022/07/12 08:26:14;;;;;;;1.50;1.40;;;;;;;22.47;57.25;101647.13;5091923;28;20027;-29
2022/07/12 08:28:39;;;;;;;2.47;2.28;;;;;;;22.54;57.52;101651.31;5093258;28;20027;-29
2022/07/12 08:31:05;;;;;;;1.70;1.60;;;;;;;22.62;56.86;101645.59;5103876;28;20023;-29
2022/07/12 08:33:30;;;;;;;1.60;1.50;;;;;;;22.72;56.71;101638.00;5098869;28;20027;-29
2022/07/12 08:35:55;;;;;;;2.72;1.88;;;;;;;22.83;56.24;101653.66;5075234;28;20024;-29
2022/07/12 08:38:21;;;;;;;1.60;1.50;;;;;;;22.92;55.65;101646.03;5091747;28;20023;-29
2022/07/12 08:40:46;;;;;;;3.10;1.70;;;;;;;23.00;56.43;101650.16;5067987;28;20013;-29
2022/07/12 08:43:12;;;;;;;1.55;1.45;;;;;;;23.11;55.52;101653.22;5070120;28;20046;-29
2022/07/12 08:45:37;;;;;;;1.50;1.40;;;;;;;23.29;55.81;101645.25;5092160;28;20467;-29
2022/07/12 08:48:03;;;;;;;2.50;1.35;;;;;;;23.37;55.56;101650.31;5085741;28;20505;-29
2022/07/12 08:50:28;;;;;;;1.73;1.63;;;;;;;23.47;55.63;101648.91;5104198;28;20023;-29
2022/07/12 08:52:55;;;;;;;1.30;1.20;;;;;;;23.57;54.42;101644.81;5093596;28;20036;-29
2022/07/12 08:55:28;;;;;;;1.40;1.30;;;;;;;23.67;55.53;101653.31;5092087;28;20028;-29
2022/07/12 08:57:56;;;;;;;1.58;1.48;;;;;;;23.80;55.27;101648.19;5078169;28;20240;-29
2022/07/12 09:00:23;;;;;;;2.00;1.55;;;;;;;23.91;54.33;101654.88;5073062;28;20135;-29
2022/07/12 09:02:51;;;;;;;1.60;1.50;;;;;;;23.98;54.63;101650.03;5089302;28;20546;-29
2022/07/12 09:05:18;;;;;;;1.30;1.20;;;;;;;24.08;54.57;101652.19;5090671;28;20077;-29
2022/07/12 09:07:44;;;;;;;1.80;1.45;;;;;;;24.22;53.21;101653.34;5102806;28;20019;-29
2022/07/12 09:10:10;;;;;;;1.15;1.15;;;;;;;24.37;54.23;101645.41;5090141;28;20031;-29
2022/07/12 09:12:37;;;;;;;1.27;1.20;;;;;;;24.56;54.42;101639.91;5091435;28;20028;-29
2022/07/12 09:15:31;;;;;;;1.58;1.40;;;;;;;24.70;54.22;101636.47;5091146;28;20411;-29
2022/07/12 09:18:00;;;;;;;2.35;1.60;;;;;;;24.79;53.75;101632.41;5081467;28;20093;-29
2022/07/12 09:20:38;;;;;;;2.83;1.50;;;;;;;24.87;52.77;101623.94;5092130;28;20028;-29
2022/07/12 09:23:05;;;;;;;1.40;1.30;;;;;;;25.09;53.45;101627.19;5087808;28;20114;-29
2022/07/12 09:25:34;;;;;;;1.38;1.27;;;;;;;25.16;53.10;101621.41;5091355;28;20024;-29
2022/07/12 09:28:03;;;;;;;1.30;1.20;;;;;;;25.24;52.30;101624.56;5082389;28;20020;-29
2022/07/12 09:30:29;;;;;;;2.85;1.20;;;;;;;25.33;52.29;101628.56;5091364;28;20074;-29
2022/07/12 09:38:28;;;;;;;1.10;1.10;;;;;;;25.55;51.19;101622.81;5091622;28;20391;-29
2022/07/12 09:40:55;;;;;;;1.58;1.45;;;;;;;25.67;51.46;101615.84;5092432;28;20028;-29
2022/07/12 09:43:22;;;;;;;1.40;1.30;;;;;;;25.81;51.11;101622.28;5095389;28;20475;-29
2022/07/12 09:45:47;;;;;;;1.52;1.13;;;;;;;25.88;50.81;101616.41;5089917;28;20035;-29
2022/07/12 09:48:13;;;;;;;1.38;1.27;;;;;;;26.04;49.96;101617.34;5091659;28;20167;-29
2022/07/12 09:50:39;;;;;;;1.33;1.23;;;;;;;26.07;50.50;101622.56;5085877;28;20433;-29
2022/07/12 09:53:05;;;;;;;1.60;1.50;;;;;;;26.16;50.12;101622.00;5096734;28;20468;-29
2022/07/12 09:55:32;;;;;;;1.30;1.13;;;;;;;26.26;49.91;101627.72;5079798;28;20027;-29
2022/07/12 09:58:00;;;;;;;1.13;1.00;;;;;;;26.29;50.17;101621.28;5076891;28;20349;-29
2022/07/12 10:00:26;;;;;;;1.35;1.25;;;;;;;26.41;49.05;101628.66;5095373;28;20024;-29
2022/07/12 10:02:52;;;;;;;1.08;1.08;;;;;;;26.49;49.28;101626.34;5076948;28;20391;-29
2022/07/12 10:05:19;;;;;;;1.83;1.30;;;;;;;26.64;47.65;101626.38;5095033;28;20072;-29
2022/07/12 10:07:45;;;;;;;1.88;1.20;;;;;;;26.69;47.68;101618.81;5096322;28;20027;-29
2022/07/12 10:10:10;;;;;;;1.80;1.70;;;;;;;26.74;48.17;101622.09;5094895;28;20020;-29
2022/07/12 10:12:36;;;;;;;1.60;1.50;;;;;;;26.83;48.74;101630.59;5088280;28;20035;-29
2022/07/12 10:15:17;;;;;;;1.20;1.20;;;;;;;26.91;48.01;101633.69;5094130;28;20150;-29
2022/07/12 10:17:54;;;;;;;2.55;1.20;;;;;;;26.93;47.03;101631.75;5073089;28;20064;-29
2022/07/12 10:20:23;;;;;;;2.65;1.17;;;;;;;26.98;47.01;101618.81;5102811;28;20031;-29
2022/07/12 10:22:50;;;;;;;1.00;1.00;;;;;;;27.08;47.09;101624.53;5094282;28;20453;-29
2022/07/12 10:25:25;;;;;;;1.02;1.02;;;;;;;27.21;47.48;101629.97;5076035;28;20475;-29
2022/07/12 10:27:50;;;;;;;1.10;1.10;;;;;;;27.21;46.28;101624.56;5094933;28;20046;-29
2022/07/12 10:30:18;;;;;;;1.83;1.13;;;;;;;27.28;45.31;101625.06;5094531;28;20024;-29
2022/07/12 10:32:44;;;;;;;2.35;1.35;;;;;;;27.31;45.06;101626.69;5092621;28;20024;-29
2022/07/12 10:35:18;;;;;;;2.15;1.30;;;;;;;27.39;44.79;101627.06;5075782;28;20081;-27
2022/07/12 10:38:12;;;;;;;1.20;1.10;;;;;;;27.48;44.90;101629.13;5104787;28;20038;-27
2022/07/12 10:40:38;;;;;;;1.00;1.00;;;;;;;27.52;44.88;101627.13;5102515;28;20032;-27
2022/07/12 10:43:04;;;;;;;1.02;0.95;;;;;;;27.61;45.22;101631.91;5094320;28;20487;-27
2022/07/12 10:45:34;;;;;;;0.88;0.88;;;;;;;27.69;44.45;101631.44;5088835;28;20089;-27
2022/07/12 10:48:03;;;;;;;1.17;1.08;;;;;;;27.84;44.06;101631.38;5085347;28;20032;-28
2022/07/12 10:50:40;;;;;;;1.65;1.10;;;;;;;27.88;44.35;101625.63;5094116;28;20039;-27
2022/07/12 10:53:40;;;;;;;0.85;0.85;;;;;;;27.92;43.53;101629.00;5072718;28;20391;-27
2022/07/12 10:56:09;;;;;;;0.80;0.80;;;;;;;27.94;43.73;101634.31;5078856;28;20036;-27
2022/07/12 10:58:35;;;;;;;0.80;0.80;;;;;;;27.96;42.97;101630.53;5093346;28;20495;-27
2022/07/12 11:01:16;;;;;;;0.80;0.80;;;;;;;27.98;43.03;101636.72;5099853;28;20030;-27
2022/07/12 11:03:53;;;;;;;1.02;0.93;;;;;;;28.04;42.76;101622.75;5113692;28;20474;-27
2022/07/12 11:06:24;;;;;;;0.95;0.95;;;;;;;28.14;42.70;101616.69;5089050;28;20383;-27
2022/07/12 11:09:07;;;;;;;1.02;1.00;;;;;;;28.21;43.22;101628.81;5099800;28;20044;-27
2022/07/12 11:11:35;;;;;;;1.38;1.27;;;;;;;28.24;42.55;101617.78;5093653;28;20039;-27
2022/07/12 11:14:01;;;;;;;2.90;0.90;;;;;;;28.30;42.16;101619.22;5091848;28;20035;-27
2022/07/12 11:16:29;;;;;;;2.85;1.58;;;;;;;28.35;41.60;101608.06;5092208;28;20031;-27
2022/07/12 11:18:55;;;;;;;1.08;1.00;;;;;;;28.43;41.80;101617.38;5090629;28;20383;-27
2022/07/12 11:21:22;;;;;;;1.00;1.00;;;;;;;28.45;41.86;101611.84;5092861;28;20024;-27
2022/07/12 11:23:48;;;;;;;1.48;0.90;;;;;;;28.48;41.92;101611.66;5093279;28;20422;-29
2022/07/12 11:26:14;;;;;;;0.95;0.80;;;;;;;28.54;41.75;101600.34;5093592;28;20019;-29
2022/07/12 11:28:41;;;;;;;1.65;1.35;;;;;;;28.58;40.80;101601.00;5093224;28;20137;-29
2022/07/12 11:31:12;;;;;;;0.80;0.80;;;;;;;28.64;41.11;101594.28;5090491;28;20028;-30